KWJF/WJF METAR and TAF weather

Enter ICAO airport designator
Station Type Date Time Source
KWJF METAR 2019/12/06 08:56 UTC NOAA

KWJF 060856Z AUTO 00000KT 10SM OVC039 09/07 A3019 RMK AO2 SLP226 T00890067 50001


Station Type Date Time Source
KWJF Decoded METAR 2019/12/06 08:56 UTC NOAA

LANCASTER FOX AIRFIELD, CA, United States (KWJF) 34-44N 118-13W
Dec 06, 2019 - 03:56 AM EST / 2019.12.06 0856 UTC
Wind: Calm:0
Visibility: 10 mile(s):0
Sky conditions: overcast
Temperature: 48.0 F (8.9 C)
Dew Point: 44.1 F (6.7 C)
Relative Humidity: 86%
Pressure (altimeter): 30.19 in. Hg (1022 hPa)
Pressure tendency: 0.00 inches (0.1 hPa) higher than three hours ago
ob: KWJF 060856Z AUTO 00000KT 10SM OVC039 09/07 A3019 RMK AO2 SLP226 T00890067 50001
cycle: 9

Station Type Date Time Source
KWJF TAF 2019/12/06 06:09 UTC NOAA

TAF KWJF 060607Z 0606/0706 VRB03KT P6SM SCT035 BKN200
FM061000 VRB03KT 6SM BR VCFG SCT001 SCT035
FM061800 10006KT P6SM BKN035
FM062200 17007KT P6SM SCT035 BKN060

Example: see airport list